createdAt,value
2022-08-08T00:00:52.133Z,20.58
2022-08-08T00:00:52.539Z,20.64
2022-08-08T00:01:52.631Z,20.54
2022-08-08T00:02:33.094Z,20.59
2022-08-08T00:03:31.440Z,20.61
2022-08-08T00:04:27.785Z,20.61
2022-08-08T00:05:43.820Z,20.59
2022-08-08T00:06:28.288Z,20.68
2022-08-08T00:07:25.805Z,20.65
2022-08-08T00:08:24.786Z,20.61
2022-08-08T00:09:24.778Z,20.65
2022-08-08T00:10:28.616Z,20.66
2022-08-08T00:11:24.751Z,20.59
2022-08-08T00:12:24.859Z,20.66
2022-08-08T00:14:15.290Z,20.54
2022-08-08T00:14:48.674Z,20.54
2022-08-08T00:15:55.925Z,20.58
2022-08-08T00:16:25.698Z,20.61
2022-08-08T00:17:24.696Z,20.65
2022-08-08T00:18:24.675Z,20.54
2022-08-08T00:19:24.663Z,20.59
2022-08-08T00:20:24.655Z,20.59
2022-08-08T00:21:24.690Z,20.54
2022-08-08T00:22:24.643Z,20.54
2022-08-08T00:23:28.352Z,20.61
2022-08-08T00:24:29.860Z,20.50
2022-08-08T00:25:24.614Z,20.58
2022-08-08T00:26:29.024Z,20.53
2022-08-08T00:27:24.589Z,20.61
2022-08-08T00:28:35.665Z,20.54
2022-08-08T00:29:45.031Z,20.50
2022-08-08T00:30:25.550Z,20.58
2022-08-08T00:32:29.297Z,20.58
2022-08-08T00:32:35.420Z,20.54
2022-08-08T00:33:25.514Z,20.39
2022-08-08T00:34:26.894Z,20.33
2022-08-08T00:35:24.492Z,20.38
2022-08-08T00:36:25.773Z,20.39
2022-08-08T00:37:47.332Z,20.34
2022-08-08T00:38:32.106Z,20.41
2022-08-08T00:39:36.228Z,20.27
2022-08-08T00:41:07.126Z,20.34
2022-08-08T00:41:54.827Z,20.35
2022-08-08T00:42:32.949Z,20.31
2022-08-08T00:43:25.456Z,20.34
2022-08-08T00:44:25.395Z,20.33
2022-08-08T00:45:27.169Z,20.35
2022-08-08T00:46:25.370Z,20.43
2022-08-08T00:47:24.371Z,20.39
2022-08-08T00:48:29.900Z,20.42
2022-08-08T00:49:27.340Z,20.42
2022-08-08T00:50:25.328Z,20.49
2022-08-08T00:51:24.320Z,20.47
2022-08-08T00:52:39.354Z,20.43
2022-08-08T00:53:25.307Z,20.42
2022-08-08T00:54:25.170Z,20.41
2022-08-08T00:55:52.617Z,20.35
2022-08-08T00:56:29.485Z,20.41
2022-08-08T00:57:29.553Z,20.38
2022-08-08T00:58:30.630Z,20.43
2022-08-08T00:59:44.551Z,20.39
2022-08-08T01:00:25.819Z,20.43
2022-08-08T01:01:37.436Z,20.34
2022-08-08T01:03:57.271Z,20.31
2022-08-08T01:04:01.734Z,20.39
2022-08-08T01:04:29.620Z,20.30
2022-08-08T01:05:42.274Z,20.35
2022-08-08T01:06:27.707Z,20.30
2022-08-08T01:07:24.156Z,20.38
2022-08-08T01:08:28.904Z,20.25
2022-08-08T01:09:35.669Z,20.27
2022-08-08T01:10:25.111Z,20.27
2022-08-08T01:11:24.102Z,20.25
2022-08-08T01:12:29.494Z,20.25
2022-08-08T01:13:43.660Z,20.23
2022-08-08T01:14:53.297Z,20.24
2022-08-08T01:15:37.327Z,20.23
2022-08-08T01:16:27.758Z,20.21
2022-08-08T01:17:25.256Z,20.23
2022-08-08T01:18:53.843Z,20.18
2022-08-08T01:19:41.795Z,20.16
2022-08-08T01:20:25.004Z,20.13
2022-08-08T01:22:01.830Z,20.09
2022-08-08T01:22:35.408Z,20.13
2022-08-08T01:24:02.661Z,20.20
2022-08-08T01:24:24.960Z,20.13
2022-08-08T01:25:40.201Z,20.13
2022-08-08T01:26:24.948Z,20.16
2022-08-08T01:27:32.797Z,20.10
2022-08-08T01:28:27.973Z,20.15
2022-08-08T01:29:24.368Z,20.10
2022-08-08T01:30:23.904Z,20.13
2022-08-08T01:32:06.354Z,20.12
2022-08-08T01:32:25.768Z,20.13
2022-08-08T01:33:27.866Z,20.18
2022-08-08T01:34:28.969Z,20.20
2022-08-08T01:35:29.574Z,20.15
2022-08-08T01:36:24.847Z,20.15
2022-08-08T01:37:56.606Z,20.10
2022-08-08T01:38:24.811Z,20.13
2022-08-08T01:39:27.877Z,20.25
2022-08-08T01:40:23.791Z,20.10
2022-08-08T01:41:23.794Z,20.15
2022-08-08T01:42:36.124Z,20.10
2022-08-08T01:43:24.756Z,20.12
2022-08-08T01:44:26.452Z,20.09
2022-08-08T01:45:23.734Z,20.15
2022-08-08T01:46:23.751Z,20.10
2022-08-08T01:48:14.005Z,20.09
2022-08-08T01:48:30.540Z,20.09
2022-08-08T01:49:38.464Z,20.06
2022-08-08T01:50:26.494Z,20.08
2022-08-08T01:51:32.052Z,20.09
2022-08-08T01:52:32.578Z,20.10
2022-08-08T01:54:57.618Z,20.00
2022-08-08T01:55:46.330Z,19.97
2022-08-08T01:56:29.128Z,20.00
2022-08-08T01:56:31.197Z,19.97
2022-08-08T01:57:24.603Z,19.95
2022-08-08T01:58:38.771Z,20.02
2022-08-08T01:59:24.581Z,19.98
2022-08-08T02:00:24.576Z,20.00
2022-08-08T02:01:23.644Z,19.90
2022-08-08T02:02:34.100Z,19.88
2022-08-08T02:03:57.375Z,19.90
2022-08-08T02:04:24.533Z,19.83
2022-08-08T02:05:23.578Z,19.76
2022-08-08T02:06:31.877Z,19.63
2022-08-08T02:07:24.499Z,19.65
2022-08-08T02:08:23.502Z,19.70
2022-08-08T02:10:01.274Z,19.70
2022-08-08T02:10:29.585Z,19.65
2022-08-08T02:11:59.972Z,19.73
2022-08-08T02:12:24.444Z,19.66
2022-08-08T02:13:54.834Z,19.66
2022-08-08T02:14:24.424Z,19.66
2022-08-08T02:15:23.411Z,19.66
2022-08-08T02:16:23.457Z,19.58
2022-08-08T02:17:23.388Z,19.55
2022-08-08T02:18:23.379Z,19.57
2022-08-08T02:19:41.761Z,19.57
2022-08-08T02:21:01.339Z,19.63
2022-08-08T02:21:24.359Z,19.63
2022-08-08T02:22:28.446Z,19.57
2022-08-08T02:23:28.933Z,19.61
2022-08-08T02:24:24.312Z,19.58
2022-08-08T02:25:23.302Z,19.54
2022-08-08T02:26:24.308Z,19.57
2022-08-08T02:27:23.281Z,19.47
2022-08-08T02:28:25.947Z,19.50
2022-08-08T02:29:24.261Z,19.53
2022-08-08T02:30:25.394Z,19.53
2022-08-08T02:31:58.034Z,19.53
2022-08-08T02:32:32.118Z,19.53
2022-08-08T02:33:24.213Z,19.54
2022-08-08T02:34:27.518Z,19.47
2022-08-08T02:35:24.193Z,19.47
2022-08-08T02:36:23.765Z,19.47
2022-08-08T02:37:53.358Z,19.51
2022-08-08T02:38:25.268Z,19.48
2022-08-08T02:39:41.963Z,19.46
2022-08-08T02:40:24.176Z,19.54
2022-08-08T02:42:03.741Z,19.50
2022-08-08T02:42:36.208Z,19.51
2022-08-08T02:44:37.710Z,19.48
2022-08-08T02:44:39.288Z,19.55
2022-08-08T02:45:24.085Z,19.42
2022-08-08T02:46:23.091Z,19.40
2022-08-08T02:47:23.062Z,19.39
2022-08-08T02:48:25.865Z,19.39
2022-08-08T02:49:38.254Z,19.39
2022-08-08T02:50:24.030Z,19.39
2022-08-08T02:51:30.058Z,19.36
2022-08-08T02:52:35.217Z,19.39
2022-08-08T02:53:24.295Z,19.39
2022-08-08T02:54:22.988Z,19.42
2022-08-08T02:55:22.976Z,19.43
2022-08-08T02:56:22.977Z,19.43
2022-08-08T02:57:23.997Z,19.46
2022-08-08T02:58:22.944Z,19.40
2022-08-08T02:59:37.059Z,19.36
2022-08-08T03:00:31.633Z,19.39
2022-08-08T03:01:23.951Z,19.42
2022-08-08T03:02:28.532Z,19.42
2022-08-08T03:05:02.764Z,19.40
2022-08-08T03:05:05.456Z,19.38
2022-08-08T03:05:23.865Z,19.40
2022-08-08T03:06:24.131Z,19.36
2022-08-08T03:07:23.856Z,19.31
2022-08-08T03:08:22.844Z,19.43
2022-08-08T03:09:22.827Z,19.39
2022-08-08T03:10:32.823Z,19.31
2022-08-08T03:11:25.669Z,19.32
2022-08-08T03:12:36.375Z,19.25
2022-08-08T03:15:53.596Z,19.29
2022-08-08T03:15:57.395Z,19.23
2022-08-08T03:16:00.904Z,19.31
2022-08-08T03:16:35.277Z,19.29
2022-08-08T03:17:25.780Z,19.24
2022-08-08T03:18:31.079Z,19.18
2022-08-08T03:19:23.725Z,19.17
2022-08-08T03:20:22.717Z,19.24
2022-08-08T03:21:26.841Z,19.14
2022-08-08T03:22:48.317Z,19.20
2022-08-08T03:23:23.865Z,19.17
2022-08-08T03:24:23.663Z,19.08
2022-08-08T03:25:22.649Z,18.94
2022-08-08T03:26:23.640Z,18.68
2022-08-08T03:27:27.135Z,18.50
2022-08-08T03:28:22.627Z,18.50
2022-08-08T03:29:26.919Z,18.54
2022-08-08T03:30:23.595Z,18.39
2022-08-08T03:31:25.669Z,18.19
2022-08-08T03:32:22.662Z,18.07
2022-08-08T03:33:56.233Z,18.09
2022-08-08T03:34:23.553Z,18.09
2022-08-08T03:35:22.556Z,18.10
2022-08-08T03:36:27.706Z,18.17
2022-08-08T03:38:00.238Z,18.29
2022-08-08T03:38:58.560Z,18.21
2022-08-08T03:39:23.545Z,18.31
2022-08-08T03:40:29.182Z,18.39
2022-08-08T03:42:12.303Z,18.39
2022-08-08T03:42:38.507Z,18.47
2022-08-08T03:43:23.453Z,18.54
2022-08-08T03:44:25.784Z,18.46
2022-08-08T03:46:07.146Z,18.62
2022-08-08T03:46:25.511Z,18.54
2022-08-08T03:47:23.414Z,18.54
2022-08-08T03:49:08.954Z,18.55
2022-08-08T03:49:56.906Z,18.57
2022-08-08T03:50:24.708Z,18.68
2022-08-08T03:51:40.230Z,18.68
2022-08-08T03:52:23.362Z,18.65
2022-08-08T03:53:37.848Z,18.67
2022-08-08T03:54:41.113Z,18.65
2022-08-08T03:55:57.914Z,18.52
2022-08-08T03:56:31.643Z,18.49
2022-08-08T03:58:34.293Z,18.50
2022-08-08T03:58:34.408Z,18.47
2022-08-08T03:59:23.391Z,18.49
2022-08-08T04:00:22.270Z,18.49
2022-08-08T04:01:24.065Z,18.47
2022-08-08T04:02:33.367Z,18.49
2022-08-08T04:03:26.086Z,18.49
2022-08-08T04:04:30.749Z,18.50
2022-08-08T04:05:28.518Z,18.49
2022-08-08T04:06:23.215Z,18.29
2022-08-08T04:07:22.195Z,18.28
2022-08-08T04:08:33.073Z,18.19
2022-08-08T04:09:23.172Z,18.34
2022-08-08T04:10:22.184Z,18.31
2022-08-08T04:11:23.405Z,18.29
2022-08-08T04:12:22.763Z,18.33
2022-08-08T04:13:22.131Z,18.31
2022-08-08T04:14:34.056Z,18.36
2022-08-08T04:15:23.106Z,18.40
2022-08-08T04:16:23.111Z,18.33
2022-08-08T04:17:58.090Z,18.24
2022-08-08T04:18:23.073Z,18.13
2022-08-08T04:19:24.930Z,17.94
2022-08-08T04:20:28.801Z,17.78
2022-08-08T04:21:23.541Z,17.67
2022-08-08T04:22:24.059Z,17.64
2022-08-08T04:23:22.022Z,17.66
2022-08-08T04:24:29.648Z,17.64
2022-08-08T04:25:22.996Z,17.74
2022-08-08T04:26:25.948Z,17.85
2022-08-08T04:28:01.437Z,17.99
2022-08-08T04:28:37.359Z,18.04
2022-08-08T04:29:22.952Z,18.15
2022-08-08T04:30:21.948Z,18.18
2022-08-08T04:31:56.770Z,18.27
2022-08-08T04:32:30.322Z,18.28
2022-08-08T04:33:22.911Z,18.17
2022-08-08T04:34:21.901Z,18.28
2022-08-08T04:35:22.889Z,18.33
2022-08-08T04:36:21.886Z,18.19
2022-08-08T04:37:31.659Z,18.27
2022-08-08T04:38:22.857Z,18.25
2022-08-08T04:39:48.021Z,18.21
2022-08-08T04:40:24.091Z,18.25
2022-08-08T04:41:21.915Z,18.27
2022-08-08T04:42:21.813Z,18.28
2022-08-08T04:43:22.188Z,18.42
2022-08-08T04:44:21.790Z,18.44
2022-08-08T04:45:22.779Z,18.47
2022-08-08T04:46:21.784Z,18.57
2022-08-08T04:47:21.757Z,18.59
2022-08-08T04:48:22.349Z,18.58
2022-08-08T04:49:21.733Z,18.73
2022-08-08T04:50:23.794Z,18.72
2022-08-08T04:51:27.991Z,18.84
2022-08-08T04:52:25.374Z,18.84
2022-08-08T04:54:26.893Z,18.84
2022-08-08T04:54:38.207Z,18.98
2022-08-08T04:55:22.669Z,19.06
2022-08-08T04:56:21.675Z,19.15
2022-08-08T04:57:21.649Z,19.20
2022-08-08T04:58:21.700Z,19.28
2022-08-08T04:59:24.282Z,19.25
2022-08-08T05:00:22.618Z,19.36
2022-08-08T05:01:21.652Z,19.48
2022-08-08T05:02:28.372Z,19.54
2022-08-08T05:04:10.326Z,19.63
2022-08-08T05:04:22.573Z,19.58
2022-08-08T05:05:45.121Z,19.54
2022-08-08T05:06:25.689Z,19.63
2022-08-08T05:07:22.566Z,19.60
2022-08-08T05:08:21.531Z,19.60
2022-08-08T05:09:22.521Z,19.70
2022-08-08T05:10:21.508Z,19.79
2022-08-08T05:11:24.388Z,19.83
2022-08-08T05:12:21.488Z,19.78
2022-08-08T05:13:22.476Z,19.84
2022-08-08T05:14:21.469Z,19.91
2022-08-08T05:15:22.424Z,19.98
2022-08-08T05:16:48.324Z,20.09
2022-08-08T05:17:22.433Z,20.06
2022-08-08T05:18:21.425Z,20.03
2022-08-08T05:20:12.462Z,19.98
2022-08-08T05:20:24.618Z,19.97
2022-08-08T05:21:21.403Z,20.08
2022-08-08T05:22:21.403Z,20.09
2022-08-08T05:23:21.369Z,20.16
2022-08-08T05:24:26.037Z,20.12
2022-08-08T05:25:21.579Z,20.12
2022-08-08T05:26:21.359Z,20.03
2022-08-08T05:27:22.324Z,20.08
2022-08-08T05:28:56.820Z,20.06
2022-08-08T05:29:22.303Z,20.08
2022-08-08T05:30:21.318Z,20.05
2022-08-08T05:32:04.571Z,20.05
2022-08-08T05:32:27.000Z,20.09
2022-08-08T05:33:22.259Z,20.09
2022-08-08T05:34:21.252Z,20.10
2022-08-08T05:35:23.399Z,20.13
2022-08-08T05:36:25.163Z,20.24
2022-08-08T05:37:21.218Z,20.25
2022-08-08T05:38:31.316Z,20.34
2022-08-08T05:39:22.221Z,20.30
2022-08-08T05:40:21.549Z,20.33
2022-08-08T05:41:23.305Z,20.30
2022-08-08T05:42:25.855Z,20.30
2022-08-08T05:43:39.605Z,20.38
2022-08-08T05:44:22.142Z,20.38
2022-08-08T05:45:25.112Z,20.50
2022-08-08T05:46:22.156Z,20.56
2022-08-08T05:47:21.406Z,20.51
2022-08-08T05:48:28.358Z,20.58
2022-08-08T05:49:22.093Z,20.66
2022-08-08T05:50:21.081Z,20.62
2022-08-08T05:51:21.078Z,20.64
2022-08-08T05:52:31.786Z,20.72
2022-08-08T05:53:55.271Z,20.80
2022-08-08T05:54:28.036Z,20.84
2022-08-08T05:55:22.030Z,20.95
2022-08-08T05:56:21.058Z,20.98
2022-08-08T05:58:04.789Z,20.91
2022-08-08T05:58:27.520Z,21.09
2022-08-08T05:59:59.975Z,21.17
2022-08-08T06:00:23.641Z,21.24
2022-08-08T06:01:56.190Z,21.29
2022-08-08T06:02:21.962Z,21.32
2022-08-08T06:03:25.405Z,21.44
2022-08-08T06:04:22.992Z,21.41
2022-08-08T06:05:34.644Z,21.39
2022-08-08T06:06:23.424Z,21.53
2022-08-08T06:07:21.903Z,21.54
2022-08-08T06:08:28.751Z,21.54
2022-08-08T06:09:59.842Z,21.54
2022-08-08T06:10:24.569Z,21.54
2022-08-08T06:11:20.861Z,21.50
2022-08-08T06:12:30.362Z,21.54
2022-08-08T06:13:23.271Z,21.59
2022-08-08T06:14:20.824Z,21.56
2022-08-08T06:15:20.813Z,21.59
2022-08-08T06:16:25.036Z,21.54
2022-08-08T06:17:21.831Z,21.46
2022-08-08T06:18:22.401Z,21.59
2022-08-08T06:19:24.049Z,21.61
2022-08-08T06:20:21.154Z,21.67
2022-08-08T06:21:32.467Z,21.67
2022-08-08T06:22:37.016Z,21.72
2022-08-08T06:23:26.281Z,21.79
2022-08-08T06:24:23.093Z,21.90
2022-08-08T06:25:33.416Z,21.90
2022-08-08T06:26:43.597Z,21.91
2022-08-08T06:27:21.679Z,21.97
2022-08-08T06:28:20.687Z,21.85
2022-08-08T06:29:48.885Z,21.92
2022-08-08T06:30:28.615Z,22.06
2022-08-08T06:31:21.657Z,22.09
2022-08-08T06:32:21.629Z,22.09
2022-08-08T06:33:36.678Z,22.20
2022-08-08T06:34:26.585Z,22.23
2022-08-08T06:36:06.137Z,22.29
2022-08-08T06:36:21.596Z,22.41
2022-08-08T06:37:24.756Z,22.47
2022-08-08T06:38:21.565Z,22.62
2022-08-08T06:39:21.905Z,22.75
2022-08-08T06:40:20.555Z,22.74
2022-08-08T06:41:21.554Z,22.87
2022-08-08T06:42:20.545Z,22.94
2022-08-08T06:43:20.550Z,23.04
2022-08-08T06:44:25.110Z,23.11
2022-08-08T06:45:20.491Z,23.12
2022-08-08T06:46:23.798Z,23.15
2022-08-08T06:47:33.494Z,23.40
2022-08-08T06:48:21.643Z,23.49
2022-08-08T06:49:54.819Z,23.57
2022-08-08T06:50:32.461Z,23.60
2022-08-08T06:51:22.279Z,23.77
2022-08-08T06:52:20.421Z,23.76
2022-08-08T06:53:20.905Z,23.82
2022-08-08T06:54:20.424Z,24.00
2022-08-08T06:55:20.410Z,24.19
2022-08-08T06:56:23.118Z,24.32
2022-08-08T06:57:20.371Z,24.56
2022-08-08T06:58:20.391Z,24.83
2022-08-08T06:59:20.352Z,25.24
2022-08-08T07:00:30.078Z,25.56
2022-08-08T07:02:17.389Z,25.86
2022-08-08T07:02:28.727Z,26.09
2022-08-08T07:03:52.579Z,26.31
2022-08-08T07:04:41.497Z,26.40
2022-08-08T07:05:24.629Z,26.68
2022-08-08T07:06:20.278Z,26.96
2022-08-08T07:07:20.287Z,27.24
2022-08-08T07:08:20.257Z,27.35
2022-08-08T07:09:20.928Z,27.58
2022-08-08T07:10:20.238Z,27.79
2022-08-08T07:11:22.214Z,27.74
2022-08-08T07:12:20.216Z,27.89
2022-08-08T07:13:22.947Z,27.99
2022-08-08T07:14:21.176Z,28.01
2022-08-08T07:15:41.180Z,28.03
2022-08-08T07:16:21.163Z,28.01
2022-08-08T07:17:21.147Z,27.95
2022-08-08T07:18:36.789Z,27.84
2022-08-08T07:19:21.125Z,27.76
2022-08-08T07:20:20.162Z,27.74
2022-08-08T07:21:21.117Z,27.85
2022-08-08T07:22:20.173Z,27.98
2022-08-08T07:23:23.574Z,28.22
2022-08-08T07:24:20.209Z,28.44
2022-08-08T07:25:20.079Z,28.53
2022-08-08T07:26:28.838Z,28.72
2022-08-08T07:27:21.042Z,28.77
2022-08-08T07:28:21.039Z,28.85
2022-08-08T07:29:20.429Z,29.22
2022-08-08T07:30:25.383Z,29.19
2022-08-08T07:31:21.011Z,29.23
2022-08-08T07:32:22.311Z,29.13
2022-08-08T07:33:19.993Z,29.37
2022-08-08T07:34:31.279Z,29.47
2022-08-08T07:35:20.976Z,29.53
2022-08-08T07:36:19.988Z,29.74
2022-08-08T07:37:20.317Z,30.00
2022-08-08T07:38:21.122Z,30.21
2022-08-08T07:39:22.539Z,30.43
2022-08-08T07:40:29.855Z,30.56
2022-08-08T07:41:24.967Z,30.64
2022-08-08T07:42:19.904Z,30.64
2022-08-08T07:43:23.225Z,30.78
2022-08-08T07:44:40.767Z,30.98
2022-08-08T07:45:20.873Z,31.02
2022-08-08T07:46:30.146Z,31.12
2022-08-08T07:47:29.015Z,31.11
2022-08-08T07:48:20.826Z,31.42
2022-08-08T07:49:19.823Z,31.67
2022-08-08T07:50:23.306Z,31.79
2022-08-08T07:51:23.756Z,31.88
2022-08-08T07:52:23.352Z,32.17
2022-08-08T07:53:52.095Z,32.21
2022-08-08T07:54:26.775Z,32.24
2022-08-08T07:55:20.769Z,32.39
2022-08-08T07:56:36.065Z,32.35
2022-08-08T07:57:21.137Z,32.62
2022-08-08T07:58:19.737Z,32.69
2022-08-08T07:59:20.122Z,32.67
2022-08-08T08:00:19.721Z,32.77
2022-08-08T08:01:19.873Z,32.84
2022-08-08T08:02:32.927Z,32.86
2022-08-08T08:03:24.039Z,32.84
2022-08-08T08:04:20.665Z,33.03
2022-08-08T08:05:19.677Z,33.01
2022-08-08T08:06:19.652Z,33.13
2022-08-08T08:07:22.664Z,33.29
2022-08-08T08:08:20.765Z,33.39
2022-08-08T08:09:19.619Z,33.55
2022-08-08T08:10:30.015Z,33.63
2022-08-08T08:11:21.195Z,33.80
2022-08-08T08:12:36.842Z,33.74
2022-08-08T08:13:25.679Z,33.57
2022-08-08T08:14:20.597Z,33.52
2022-08-08T08:15:23.208Z,33.34
2022-08-08T08:16:19.732Z,33.41
2022-08-08T08:17:28.808Z,33.37
2022-08-08T08:18:31.692Z,33.39
2022-08-08T08:19:21.260Z,33.46
2022-08-08T08:20:19.524Z,33.39
2022-08-08T08:21:19.504Z,33.58
2022-08-08T08:22:31.214Z,33.71
2022-08-08T08:23:20.491Z,33.61
2022-08-08T08:24:20.495Z,33.52
2022-08-08T08:25:43.177Z,33.68
2022-08-08T08:26:27.503Z,33.63
2022-08-08T08:27:20.455Z,33.65
2022-08-08T08:28:23.807Z,33.65
2022-08-08T08:29:19.703Z,33.98
2022-08-08T08:30:19.473Z,34.01
2022-08-08T08:31:19.426Z,34.09
2022-08-08T08:32:31.805Z,34.20
2022-08-08T08:33:20.398Z,34.17
2022-08-08T08:34:21.237Z,34.14
2022-08-08T08:35:21.372Z,34.14
2022-08-08T08:36:21.959Z,34.26
2022-08-08T08:37:20.796Z,34.34
2022-08-08T08:38:19.849Z,34.39
2022-08-08T08:39:22.909Z,34.61
2022-08-08T08:40:19.458Z,34.54
2022-08-08T08:41:20.062Z,34.66
2022-08-08T08:42:32.143Z,34.61
2022-08-08T08:43:20.295Z,34.60
2022-08-08T08:44:20.281Z,34.51
2022-08-08T08:45:21.914Z,34.41
2022-08-08T08:46:19.265Z,34.56
2022-08-08T08:47:20.370Z,34.73
2022-08-08T08:48:19.902Z,34.61
2022-08-08T08:49:19.236Z,34.56
2022-08-08T08:50:33.975Z,34.53
2022-08-08T08:51:20.222Z,34.77
2022-08-08T08:52:20.570Z,34.84
2022-08-08T08:53:54.245Z,34.74
2022-08-08T08:54:20.237Z,34.70
2022-08-08T08:55:20.340Z,34.76
2022-08-08T08:56:24.143Z,34.96
2022-08-08T08:57:20.162Z,34.89
2022-08-08T08:58:19.151Z,35.02
2022-08-08T08:59:23.647Z,34.63
2022-08-08T09:00:20.315Z,34.77
2022-08-08T09:01:19.223Z,34.74
2022-08-08T09:02:19.197Z,34.81
2022-08-08T09:03:19.488Z,35.15
2022-08-08T09:04:31.878Z,35.20
2022-08-08T09:05:49.304Z,35.36
2022-08-08T09:06:28.507Z,35.45
2022-08-08T09:07:20.080Z,35.51
2022-08-08T09:08:21.004Z,35.48
2022-08-08T09:09:35.314Z,35.45
2022-08-08T09:10:21.313Z,35.39
2022-08-08T09:11:19.029Z,35.32
2022-08-08T09:12:19.767Z,35.25
2022-08-08T09:13:25.294Z,35.21
2022-08-08T09:14:19.999Z,35.30
2022-08-08T09:15:41.418Z,35.32
2022-08-08T09:16:19.988Z,35.42
2022-08-08T09:17:23.627Z,35.51
2022-08-08T09:18:19.977Z,35.47
2022-08-08T09:19:33.937Z,35.54
2022-08-08T09:21:56.134Z,35.48
2022-08-08T09:22:01.477Z,35.58
2022-08-08T09:22:27.085Z,35.50
2022-08-08T09:23:25.845Z,35.39
2022-08-08T09:24:19.908Z,35.48
2022-08-08T09:25:18.918Z,35.39
2022-08-08T09:26:18.890Z,35.11
2022-08-08T09:27:20.919Z,35.42
2022-08-08T09:28:37.875Z,35.30
2022-08-08T09:29:22.661Z,35.40
2022-08-08T09:30:20.046Z,35.57
2022-08-08T09:31:18.869Z,35.72
2022-08-08T09:32:19.486Z,35.32
2022-08-08T09:34:14.774Z,34.92
2022-08-08T09:34:32.626Z,34.53
2022-08-08T09:35:19.815Z,34.11
2022-08-08T09:36:19.797Z,34.08
2022-08-08T09:37:46.232Z,34.20
2022-08-08T09:38:19.776Z,34.38
2022-08-08T09:39:18.946Z,34.35
2022-08-08T09:40:18.927Z,34.34
2022-08-08T09:41:18.803Z,34.35
2022-08-08T09:42:22.265Z,33.74
2022-08-08T09:43:23.891Z,32.95
2022-08-08T09:44:34.004Z,32.39
2022-08-08T09:45:54.123Z,31.93
2022-08-08T09:46:25.835Z,32.02
2022-08-08T09:48:03.045Z,32.29
2022-08-08T09:48:26.153Z,32.13
2022-08-08T09:49:42.884Z,32.13
2022-08-08T09:50:19.852Z,32.39
2022-08-08T09:51:18.653Z,32.62
2022-08-08T09:52:56.146Z,33.07
2022-08-08T09:53:31.917Z,33.26
2022-08-08T09:54:36.878Z,33.34
2022-08-08T09:55:51.747Z,33.57
2022-08-08T09:56:25.009Z,34.00
2022-08-08T09:57:19.597Z,34.32
2022-08-08T09:58:25.782Z,34.51
2022-08-08T09:59:48.212Z,34.26
2022-08-08T10:00:50.213Z,33.89
2022-08-08T10:01:58.271Z,33.94
2022-08-08T10:02:19.547Z,34.05
2022-08-08T10:03:19.846Z,33.65
2022-08-08T10:04:38.748Z,33.30
2022-08-08T10:05:25.124Z,32.57
2022-08-08T10:06:19.517Z,31.95
2022-08-08T10:07:19.499Z,31.55
2022-08-08T10:08:18.488Z,31.39
2022-08-08T10:09:18.482Z,31.77
2022-08-08T10:10:18.485Z,31.95
2022-08-08T10:12:26.351Z,32.36
2022-08-08T10:12:28.026Z,32.64
2022-08-08T10:13:19.445Z,32.22
2022-08-08T10:14:28.124Z,31.91
2022-08-08T10:15:19.441Z,31.79
2022-08-08T10:16:18.422Z,31.85
2022-08-08T10:17:56.834Z,32.00
2022-08-08T10:18:25.507Z,32.05
2022-08-08T10:19:19.383Z,32.36
2022-08-08T10:20:18.389Z,32.61
2022-08-08T10:21:26.162Z,32.81
2022-08-08T10:22:19.355Z,32.89
2022-08-08T10:23:41.212Z,33.04
2022-08-08T10:24:29.948Z,33.14
2022-08-08T10:25:19.338Z,33.55
2022-08-08T10:26:30.120Z,33.61
2022-08-08T10:27:19.316Z,33.71
2022-08-08T10:28:18.296Z,33.46
2022-08-08T10:29:21.136Z,33.19
2022-08-08T10:30:59.696Z,32.79
2022-08-08T10:31:19.268Z,32.32
2022-08-08T10:32:19.257Z,31.85
2022-08-08T10:33:18.259Z,31.62
2022-08-08T10:34:21.033Z,31.57
2022-08-08T10:36:01.890Z,31.42
2022-08-08T10:36:22.190Z,31.42
2022-08-08T10:37:18.204Z,31.27
2022-08-08T10:38:18.199Z,30.98
2022-08-08T10:39:18.260Z,30.72
2022-08-08T10:40:19.891Z,30.56
2022-08-08T10:41:20.062Z,30.53
2022-08-08T10:42:18.160Z,30.45
2022-08-08T10:43:18.161Z,30.12
2022-08-08T10:44:18.164Z,29.90
2022-08-08T10:45:18.126Z,29.77
2022-08-08T10:46:27.640Z,29.55
2022-08-08T10:47:21.145Z,29.29
2022-08-08T10:48:18.098Z,29.03
2022-08-08T10:50:00.035Z,29.03
2022-08-08T10:50:19.077Z,29.07
2022-08-08T10:51:18.066Z,29.11
2022-08-08T10:52:18.060Z,29.10
2022-08-08T10:53:19.111Z,29.25
2022-08-08T10:54:19.048Z,29.38
2022-08-08T10:55:39.818Z,29.45
2022-08-08T10:56:27.827Z,29.37
2022-08-08T10:57:41.369Z,29.28
2022-08-08T10:58:19.000Z,29.16
2022-08-08T10:59:17.993Z,29.08
2022-08-08T11:00:18.004Z,29.00
2022-08-08T11:01:18.057Z,28.97
2022-08-08T11:02:17.984Z,29.00
2022-08-08T11:03:17.953Z,29.01
2022-08-08T11:04:17.944Z,28.95
2022-08-08T11:05:18.935Z,28.95
2022-08-08T11:06:17.913Z,29.01
2022-08-08T11:07:40.618Z,29.04
2022-08-08T11:08:30.730Z,29.06
2022-08-08T11:09:19.775Z,29.00
2022-08-08T11:10:19.858Z,28.96
2022-08-08T11:12:00.106Z,28.97
2022-08-08T11:12:18.850Z,28.85
2022-08-08T11:13:33.708Z,28.78
2022-08-08T11:14:20.829Z,28.85
2022-08-08T11:15:18.818Z,28.68
2022-08-08T11:16:32.260Z,28.59
2022-08-08T11:17:58.806Z,28.62
2022-08-08T11:18:18.788Z,28.51
2022-08-08T11:19:18.082Z,28.48
2022-08-08T11:20:21.445Z,28.50
2022-08-08T11:21:19.762Z,28.48
2022-08-08T11:22:17.752Z,28.40
2022-08-08T11:23:17.765Z,28.35
2022-08-08T11:24:17.740Z,28.38
2022-08-08T11:25:17.805Z,28.38
2022-08-08T11:26:18.889Z,28.38
2022-08-08T11:27:23.084Z,28.47
2022-08-08T11:28:18.910Z,28.46
2022-08-08T11:29:17.683Z,28.59
2022-08-08T11:30:24.622Z,28.58
2022-08-08T11:31:18.650Z,28.50
2022-08-08T11:32:17.643Z,28.51
2022-08-08T11:33:17.827Z,28.38
2022-08-08T11:34:24.082Z,28.29
2022-08-08T11:35:24.880Z,28.36
2022-08-08T11:36:18.625Z,28.35
2022-08-08T11:37:17.666Z,28.32
2022-08-08T11:38:38.906Z,28.25
2022-08-08T11:39:20.008Z,28.14
2022-08-08T11:40:22.357Z,28.25
2022-08-08T11:41:18.584Z,28.17
2022-08-08T11:42:17.549Z,28.26
2022-08-08T11:43:17.525Z,28.28
2022-08-08T11:44:17.528Z,28.17
2022-08-08T11:45:18.627Z,28.14
2022-08-08T11:46:19.674Z,28.13
2022-08-08T11:47:17.604Z,28.07
2022-08-08T11:48:20.612Z,28.09
2022-08-08T11:49:17.496Z,28.10
2022-08-08T11:50:23.133Z,28.04
2022-08-08T11:51:30.467Z,28.01
2022-08-08T11:52:27.406Z,28.03
2022-08-08T11:53:18.423Z,27.96
2022-08-08T11:54:31.390Z,28.10
2022-08-08T11:55:18.402Z,28.07
2022-08-08T11:56:17.395Z,28.06
2022-08-08T11:57:17.651Z,28.14
2022-08-08T11:58:18.370Z,28.10
2022-08-08T11:59:17.372Z,28.17
2022-08-08T12:00:18.443Z,28.17
2022-08-08T12:01:17.452Z,28.17
2022-08-08T12:02:31.692Z,28.11
2022-08-08T12:03:21.288Z,28.17
2022-08-08T12:04:17.318Z,28.17
2022-08-08T12:05:17.297Z,28.11
2022-08-08T12:06:17.286Z,28.19
2022-08-08T12:07:18.013Z,28.10
2022-08-08T12:08:17.268Z,28.10
2022-08-08T12:09:19.034Z,28.01
2022-08-08T12:10:17.815Z,28.03
2022-08-08T12:11:18.305Z,28.09
2022-08-08T12:12:18.228Z,28.03
2022-08-08T12:13:18.210Z,28.01
2022-08-08T12:14:17.221Z,28.07
2022-08-08T12:15:17.193Z,28.13
2022-08-08T12:16:17.186Z,28.13
2022-08-08T12:17:17.172Z,28.25
2022-08-08T12:18:21.033Z,28.23
2022-08-08T12:19:31.148Z,28.22
2022-08-08T12:20:18.138Z,28.35
2022-08-08T12:21:17.128Z,28.29
2022-08-08T12:22:20.983Z,28.43
2022-08-08T12:23:30.108Z,28.51
2022-08-08T12:24:18.118Z,28.60
2022-08-08T12:25:17.086Z,28.65
2022-08-08T12:26:27.925Z,28.60
2022-08-08T12:27:18.214Z,28.62
2022-08-08T12:28:17.057Z,28.69
2022-08-08T12:29:17.057Z,28.70
2022-08-08T12:30:24.702Z,28.53
2022-08-08T12:31:18.029Z,28.60
2022-08-08T12:32:20.238Z,28.63
2022-08-08T12:33:17.003Z,28.60
2022-08-08T12:34:17.004Z,28.53
2022-08-08T12:35:18.471Z,28.48
2022-08-08T12:36:16.973Z,28.54
2022-08-08T12:37:16.965Z,28.51
2022-08-08T12:38:17.897Z,28.53
2022-08-08T12:39:17.018Z,28.48
2022-08-08T12:40:23.917Z,28.56
2022-08-08T12:41:34.051Z,28.50
2022-08-08T12:42:21.369Z,28.63
2022-08-08T12:43:16.902Z,28.66
2022-08-08T12:44:32.124Z,28.70
2022-08-08T12:46:00.013Z,28.70
2022-08-08T12:46:19.420Z,28.75
2022-08-08T12:47:17.860Z,28.75
2022-08-08T12:48:35.620Z,28.77
2022-08-08T12:49:24.946Z,28.73
2022-08-08T12:50:17.827Z,28.82
2022-08-08T12:51:16.815Z,28.85